sensor_id;sensor_type;location;lat;lon;timestamp;pressure;altitude;pressure_sealevel;temperature;humidity
62011;BME280;47967;51.756;10.174;2023-03-18T05:02:05;99215.13;;;9.97;71.18
62011;BME280;47967;51.756;10.174;2023-03-18T05:06:18;99218.47;;;9.86;72.41
62011;BME280;47967;51.756;10.174;2023-03-18T05:10:28;99221.16;;;10.06;71.23
62011;BME280;47967;51.756;10.174;2023-03-18T05:14:30;99214.06;;;10.12;70.76
62011;BME280;47967;51.756;10.174;2023-03-18T05:18:36;99215.69;;;10.33;69.60
62011;BME280;47967;51.756;10.174;2023-03-18T05:22:40;99205.53;;;10.21;70.64
62011;BME280;47967;51.756;10.174;2023-03-18T05:26:49;99209.97;;;10.02;72.17
62011;BME280;47967;51.756;10.174;2023-03-18T05:30:56;99218.47;;;9.92;72.38
62011;BME280;47967;51.756;10.174;2023-03-18T05:35:03;99214.31;;;10.03;71.89
62011;BME280;47967;51.756;10.174;2023-03-18T05:39:13;99202.47;;;10.11;71.50
62011;BME280;47967;51.756;10.174;2023-03-18T05:43:16;99208.09;;;10.09;71.85
62011;BME280;47967;51.756;10.174;2023-03-18T05:47:26;99213.69;;;10.01;72.10
62011;BME280;47967;51.756;10.174;2023-03-18T05:51:39;99217.63;;;9.99;73.18
62011;BME280;47967;51.756;10.174;2023-03-18T05:55:45;99224.84;;;10.12;73.28
62011;BME280;47967;51.756;10.174;2023-03-18T05:59:50;99219.06;;;10.08;74.10
62011;BME280;47967;51.756;10.174;2023-03-18T06:03:53;99221.31;;;10.24;74.07
62011;BME280;47967;51.756;10.174;2023-03-18T06:07:57;99216.72;;;10.32;74.08
62011;BME280;47967;51.756;10.174;2023-03-18T06:12:02;99228.97;;;10.34;74.07
62011;BME280;47967;51.756;10.174;2023-03-18T06:16:06;99225.63;;;10.32;74.77
62011;BME280;47967;51.756;10.174;2023-03-18T06:20:10;99227.06;;;10.35;75.30
62011;BME280;47967;51.756;10.174;2023-03-18T06:24:15;99237.25;;;10.39;75.15
62011;BME280;47967;51.756;10.174;2023-03-18T06:28:18;99230.75;;;10.61;75.39
62011;BME280;47967;51.756;10.174;2023-03-18T06:32:21;99239.00;;;10.79;74.44
62011;BME280;47967;51.756;10.174;2023-03-18T06:36:24;99241.06;;;10.77;74.48
62011;BME280;47967;51.756;10.174;2023-03-18T06:40:29;99234.06;;;10.69;74.84
62011;BME280;47967;51.756;10.174;2023-03-18T06:44:33;99236.47;;;10.84;75.34
62011;BME280;47967;51.756;10.174;2023-03-18T06:48:45;99252.13;;;11.08;74.96
62011;BME280;47967;51.756;10.174;2023-03-18T06:52:54;99262.38;;;11.31;74.80
62011;BME280;47967;51.756;10.174;2023-03-18T06:57:03;99260.72;;;11.62;74.28
62011;BME280;47967;51.756;10.174;2023-03-18T07:01:07;99260.53;;;11.57;74.98
62011;BME280;47967;51.756;10.174;2023-03-18T07:05:14;99278.91;;;11.48;75.33
62011;BME280;47967;51.756;10.174;2023-03-18T07:09:17;99279.75;;;11.74;74.89
62011;BME280;47967;51.756;10.174;2023-03-18T07:13:27;99278.25;;;12.10;74.14
62011;BME280;47967;51.756;10.174;2023-03-18T07:17:30;99285.34;;;12.48;73.18
62011;BME280;47967;51.756;10.174;2023-03-18T07:21:33;99296.94;;;12.74;72.27
62011;BME280;47967;51.756;10.174;2023-03-18T07:25:36;99290.69;;;12.92;71.39
62011;BME280;47967;51.756;10.174;2023-03-18T07:29:40;99308.13;;;13.15;70.85
62011;BME280;47967;51.756;10.174;2023-03-18T07:33:43;99304.59;;;13.44;70.28
62011;BME280;47967;51.756;10.174;2023-03-18T07:37:46;99304.97;;;13.48;69.44
62011;BME280;47967;51.756;10.174;2023-03-18T07:41:49;99317.88;;;13.76;69.09
62011;BME280;47967;51.756;10.174;2023-03-18T07:45:56;99312.66;;;14.17;68.16
62011;BME280;47967;51.756;10.174;2023-03-18T07:50:00;99320.66;;;14.00;68.17
62011;BME280;47967;51.756;10.174;2023-03-18T07:54:03;99310.78;;;13.64;69.28
62011;BME280;47967;51.756;10.174;2023-03-18T07:58:06;99320.44;;;13.59;70.50
62011;BME280;47967;51.756;10.174;2023-03-18T08:02:13;99322.00;;;13.79;70.66
62011;BME280;47967;51.756;10.174;2023-03-18T08:06:16;99323.94;;;14.02;70.10
62011;BME280;47967;51.756;10.174;2023-03-18T08:10:21;99334.34;;;14.17;69.03
62011;BME280;47967;51.756;10.174;2023-03-18T08:14:24;99328.47;;;14.32;69.07
62011;BME280;47967;51.756;10.174;2023-03-18T08:18:28;99334.09;;;14.07;68.62
62011;BME280;47967;51.756;10.174;2023-03-18T08:22:31;99341.66;;;14.29;67.56
62011;BME280;47967;51.756;10.174;2023-03-18T08:26:33;99352.06;;;14.44;67.02
62011;BME280;47967;51.756;10.174;2023-03-18T08:30:37;99355.84;;;14.54;66.85
62011;BME280;47967;51.756;10.174;2023-03-18T08:34:42;99349.69;;;14.83;66.17
62011;BME280;47967;51.756;10.174;2023-03-18T08:38:44;99347.47;;;14.92;65.55
62011;BME280;47967;51.756;10.174;2023-03-18T08:42:47;99345.63;;;15.09;65.12
62011;BME280;47967;51.756;10.174;2023-03-18T08:46:49;99354.72;;;15.44;64.09
62011;BME280;47967;51.756;10.174;2023-03-18T08:50:53;99356.97;;;15.47;64.13
62011;BME280;47967;51.756;10.174;2023-03-18T08:54:56;99354.97;;;15.42;64.70
62011;BME280;47967;51.756;10.174;2023-03-18T08:58:58;99346.56;;;15.84;63.80
62011;BME280;47967;51.756;10.174;2023-03-18T09:03:01;99356.28;;;16.14;63.11
62011;BME280;47967;51.756;10.174;2023-03-18T09:07:05;99357.63;;;16.12;62.85
62011;BME280;47967;51.756;10.174;2023-03-18T09:11:08;99359.41;;;16.23;62.44
62011;BME280;47967;51.756;10.174;2023-03-18T09:15:12;99350.69;;;16.21;62.13
62011;BME280;47967;51.756;10.174;2023-03-18T09:19:16;99353.72;;;16.59;61.39
62011;BME280;47967;51.756;10.174;2023-03-18T09:23:20;99353.28;;;16.67;60.97
62011;BME280;47967;51.756;10.174;2023-03-18T09:27:22;99359.09;;;16.93;61.32
62011;BME280;47967;51.756;10.174;2023-03-18T09:31:25;99357.47;;;16.36;60.60
62011;BME280;47967;51.756;10.174;2023-03-18T09:35:28;99356.94;;;16.05;61.86
62011;BME280;47967;51.756;10.174;2023-03-18T09:39:32;99353.81;;;16.30;62.27
62011;BME280;47967;51.756;10.174;2023-03-18T09:43:47;99341.91;;;16.53;61.17
62011;BME280;47967;51.756;10.174;2023-03-18T09:48:10;99361.97;;;16.47;59.60
62011;BME280;47967;51.756;10.174;2023-03-18T09:52:21;99361.59;;;16.77;59.44
62011;BME280;47967;51.756;10.174;2023-03-18T09:56:29;99353.38;;;16.72;59.07
62011;BME280;47967;51.756;10.174;2023-03-18T10:00:36;99357.00;;;16.61;59.28
62011;BME280;47967;51.756;10.174;2023-03-18T10:04:41;99357.13;;;16.88;58.61
62011;BME280;47967;51.756;10.174;2023-03-18T10:08:51;99349.63;;;16.95;58.75
62011;BME280;47967;51.756;10.174;2023-03-18T10:13:06;99343.72;;;17.26;57.79
62011;BME280;47967;51.756;10.174;2023-03-18T10:17:17;99344.00;;;17.52;57.09
62011;BME280;47967;51.756;10.174;2023-03-18T10:21:29;99352.19;;;17.79;57.52
62011;BME280;47967;51.756;10.174;2023-03-18T10:25:38;99360.22;;;17.91;56.33
62011;BME280;47967;51.756;10.174;2023-03-18T10:29:49;99363.38;;;18.43;56.43
62011;BME280;47967;51.756;10.174;2023-03-18T10:33:57;99364.94;;;18.33;55.58
62011;BME280;47967;51.756;10.174;2023-03-18T10:38:01;99371.94;;;18.56;54.39
62011;BME280;47967;51.756;10.174;2023-03-18T10:42:17;99366.41;;;18.08;54.71
62011;BME280;47967;51.756;10.174;2023-03-18T10:46:23;99368.94;;;18.15;53.14
62011;BME280;47967;51.756;10.174;2023-03-18T10:50:32;99374.00;;;18.06;54.77
62011;BME280;47967;51.756;10.174;2023-03-18T10:54:39;99379.75;;;18.37;54.96
62011;BME280;47967;51.756;10.174;2023-03-18T10:58:42;99368.66;;;18.17;54.50
62011;BME280;47967;51.756;10.174;2023-03-18T11:02:46;99375.63;;;18.02;52.91
62011;BME280;47967;51.756;10.174;2023-03-18T11:06:53;99376.75;;;18.06;54.23
62011;BME280;47967;51.756;10.174;2023-03-18T11:11:01;99373.88;;;18.23;53.86
62011;BME280;47967;51.756;10.174;2023-03-18T11:15:18;99370.28;;;17.90;54.07
62011;BME280;47967;51.756;10.174;2023-03-18T11:19:29;99373.84;;;18.18;53.70
62011;BME280;47967;51.756;10.174;2023-03-18T11:23:34;99375.66;;;18.07;54.14
62011;BME280;47967;51.756;10.174;2023-03-18T11:27:50;99373.13;;;17.96;54.03
62011;BME280;47967;51.756;10.174;2023-03-18T11:31:55;99374.63;;;17.86;54.61
62011;BME280;47967;51.756;10.174;2023-03-18T11:36:05;99374.59;;;18.08;55.44
62011;BME280;47967;51.756;10.174;2023-03-18T11:40:16;99363.97;;;18.45;53.82
62011;BME280;47967;51.756;10.174;2023-03-18T11:44:24;99377.03;;;18.37;53.10
62011;BME280;47967;51.756;10.174;2023-03-18T11:48:31;99370.84;;;18.20;53.53
62011;BME280;47967;51.756;10.174;2023-03-18T11:52:42;99370.63;;;18.59;52.80
62011;BME280;47967;51.756;10.174;2023-03-18T11:56:54;99368.06;;;18.47;53.00
62011;BME280;47967;51.756;10.174;2023-03-18T12:01:02;99368.38;;;18.94;52.66
62011;BME280;47967;51.756;10.174;2023-03-18T12:05:25;99372.50;;;18.96;51.18
62011;BME280;47967;51.756;10.174;2023-03-18T12:09:39;99363.28;;;19.13;51.58
62011;BME280;47967;51.756;10.174;2023-03-18T12:13:55;99342.72;;;19.00;51.95
62011;BME280;47967;51.756;10.174;2023-03-18T12:18:07;99357.66;;;18.87;51.99
62011;BME280;47967;51.756;10.174;2023-03-18T12:22:25;99363.22;;;18.97;51.89
62011;BME280;47967;51.756;10.174;2023-03-18T12:26:34;99352.50;;;19.75;50.51
62011;BME280;47967;51.756;10.174;2023-03-18T12:31:05;99354.41;;;19.59;49.66
62011;BME280;47967;51.756;10.174;2023-03-18T12:35:29;99355.59;;;19.89;48.74
62011;BME280;47967;51.756;10.174;2023-03-18T12:39:55;99353.88;;;19.57;49.61
62011;BME280;47967;51.756;10.174;2023-03-18T12:44:16;99350.06;;;19.73;49.09
62011;BME280;47967;51.756;10.174;2023-03-18T12:48:29;99346.13;;;19.33;49.82
62011;BME280;47967;51.756;10.174;2023-03-18T12:52:47;99345.31;;;19.32;49.26
62011;BME280;47967;51.756;10.174;2023-03-18T12:56:55;99338.53;;;19.71;48.82
62011;BME280;47967;51.756;10.174;2023-03-18T13:01:05;99349.34;;;19.19;50.39
62011;BME280;47967;51.756;10.174;2023-03-18T13:05:23;99346.19;;;18.90;50.60
62011;BME280;47967;51.756;10.174;2023-03-18T13:09:34;99342.66;;;18.90;49.90
62011;BME280;47967;51.756;10.174;2023-03-18T13:13:43;99345.56;;;19.31;51.32
62011;BME280;47967;51.756;10.174;2023-03-18T13:17:50;99346.75;;;19.71;50.33
62011;BME280;47967;51.756;10.174;2023-03-18T13:22:00;99342.97;;;19.82;48.12
62011;BME280;47967;51.756;10.174;2023-03-18T13:26:15;99344.53;;;19.52;49.47
62011;BME280;47967;51.756;10.174;2023-03-18T13:30:32;99339.91;;;19.74;47.86
62011;BME280;47967;51.756;10.174;2023-03-18T13:34:51;99348.06;;;19.32;48.60
62011;BME280;47967;51.756;10.174;2023-03-18T13:39:18;99352.38;;;19.23;49.30
62011;BME280;47967;51.756;10.174;2023-03-18T13:43:25;99343.31;;;19.17;48.26
62011;BME280;47967;51.756;10.174;2023-03-18T13:47:30;99358.50;;;19.46;48.42
62011;BME280;47967;51.756;10.174;2023-03-18T13:51:54;99348.19;;;19.84;47.69
62011;BME280;47967;51.756;10.174;2023-03-18T13:56:01;99336.56;;;19.41;47.92
62011;BME280;47967;51.756;10.174;2023-03-18T14:00:21;99341.22;;;19.35;48.37
62011;BME280;47967;51.756;10.174;2023-03-18T14:04:29;99341.81;;;19.58;48.00
62011;BME280;47967;51.756;10.174;2023-03-18T14:08:45;99340.19;;;19.72;48.50
62011;BME280;47967;51.756;10.174;2023-03-18T14:12:48;99330.91;;;19.78;47.02
62011;BME280;47967;51.756;10.174;2023-03-18T14:16:51;99327.13;;;19.90;47.54
62011;BME280;47967;51.756;10.174;2023-03-18T14:20:58;99331.19;;;19.72;47.21
62011;BME280;47967;51.756;10.174;2023-03-18T14:25:33;99328.22;;;19.83;47.12
62011;BME280;47967;51.756;10.174;2023-03-18T14:29:39;99326.28;;;19.84;47.26
62011;BME280;47967;51.756;10.174;2023-03-18T14:34:01;99333.13;;;19.92;47.12
62011;BME280;47967;51.756;10.174;2023-03-18T14:38:08;99331.22;;;20.08;46.67
62011;BME280;47967;51.756;10.174;2023-03-18T14:42:26;99328.19;;;20.20;46.98
62011;BME280;47967;51.756;10.174;2023-03-18T14:46:32;99336.97;;;20.06;45.40
62011;BME280;47967;51.756;10.174;2023-03-18T14:50:39;99330.28;;;19.45;46.80
62011;BME280;47967;51.756;10.174;2023-03-18T14:54:43;99316.91;;;19.54;47.32
62011;BME280;47967;51.756;10.174;2023-03-18T14:58:50;99313.00;;;19.24;46.58
62011;BME280;47967;51.756;10.174;2023-03-18T15:02:59;99316.31;;;19.42;48.64
62011;BME280;47967;51.756;10.174;2023-03-18T15:07:03;99308.41;;;19.40;47.52
62011;BME280;47967;51.756;10.174;2023-03-18T15:11:10;99309.28;;;19.82;45.62
62011;BME280;47967;51.756;10.174;2023-03-18T15:15:15;99306.84;;;19.96;45.52
62011;BME280;47967;51.756;10.174;2023-03-18T15:19:19;99307.13;;;20.05;45.50
62011;BME280;47967;51.756;10.174;2023-03-18T15:23:27;99303.84;;;20.03;45.81
62011;BME280;47967;51.756;10.174;2023-03-18T15:27:34;99310.63;;;19.59;46.23
62011;BME280;47967;51.756;10.174;2023-03-18T15:31:43;99312.41;;;19.07;48.06
62011;BME280;47967;51.756;10.174;2023-03-18T15:35:52;99312.25;;;18.81;48.42
62011;BME280;47967;51.756;10.174;2023-03-18T15:39:56;99307.00;;;18.69;48.59
62011;BME280;47967;51.756;10.174;2023-03-18T15:43:59;99311.28;;;18.49;48.77
62011;BME280;47967;51.756;10.174;2023-03-18T15:48:06;99314.75;;;18.39;48.73
62011;BME280;47967;51.756;10.174;2023-03-18T15:52:14;99314.22;;;18.43;49.26
62011;BME280;47967;51.756;10.174;2023-03-18T15:56:20;99304.63;;;18.35;50.04
62011;BME280;47967;51.756;10.174;2023-03-18T16:00:25;99311.50;;;18.43;49.45
62011;BME280;47967;51.756;10.174;2023-03-18T16:04:31;99301.59;;;18.31;50.98
62011;BME280;47967;51.756;10.174;2023-03-18T16:08:35;99301.59;;;18.31;51.33
62011;BME280;47967;51.756;10.174;2023-03-18T16:12:38;99294.25;;;18.37;50.30
62011;BME280;47967;51.756;10.174;2023-03-18T16:16:41;99294.88;;;18.49;50.77
62011;BME280;47967;51.756;10.174;2023-03-18T16:20:45;99304.88;;;18.81;51.81
62011;BME280;47967;51.756;10.174;2023-03-18T16:24:49;99294.84;;;18.92;51.97
62011;BME280;47967;51.756;10.174;2023-03-18T16:28:51;99303.72;;;19.20;51.34
62011;BME280;47967;51.756;10.174;2023-03-18T16:32:54;99310.34;;;19.81;50.38
62011;BME280;47967;51.756;10.174;2023-03-18T16:36:59;99313.69;;;20.19;49.08
62011;BME280;47967;51.756;10.174;2023-03-18T16:41:02;99318.28;;;20.55;47.93
62011;BME280;47967;51.756;10.174;2023-03-18T16:45:07;99319.13;;;20.60;48.13
62011;BME280;47967;51.756;10.174;2023-03-18T16:49:14;99322.44;;;20.37;47.14
62011;BME280;47967;51.756;10.174;2023-03-18T16:53:22;99324.38;;;20.15;48.89
62011;BME280;47967;51.756;10.174;2023-03-18T16:57:26;99324.56;;;19.52;51.10
62011;BME280;47967;51.756;10.174;2023-03-18T17:01:29;99320.56;;;18.96;52.81
62011;BME280;47967;51.756;10.174;2023-03-18T17:05:32;99333.53;;;18.31;55.75
62011;BME280;47967;51.756;10.174;2023-03-18T17:09:36;99337.84;;;17.62;56.13
62011;BME280;47967;51.756;10.174;2023-03-18T17:13:39;99340.50;;;17.07;57.77
62011;BME280;47967;51.756;10.174;2023-03-18T17:17:42;99339.13;;;16.48;58.95
62011;BME280;47967;51.756;10.174;2023-03-18T17:21:45;99344.91;;;16.00;60.45
62011;BME280;47967;51.756;10.174;2023-03-18T17:25:52;99348.66;;;15.53;61.66
62011;BME280;47967;51.756;10.174;2023-03-18T17:29:55;99357.38;;;14.86;62.76
62011;BME280;47967;51.756;10.174;2023-03-18T17:33:57;99343.31;;;14.53;64.04
62011;BME280;47967;51.756;10.174;2023-03-18T17:38:00;99348.28;;;14.33;64.13
62011;BME280;47967;51.756;10.174;2023-03-18T17:42:04;99363.25;;;14.12;65.99
62011;BME280;47967;51.756;10.174;2023-03-18T17:46:07;99361.34;;;14.00;66.38
62011;BME280;47967;51.756;10.174;2023-03-18T17:50:12;99364.63;;;13.90;66.85
62011;BME280;47967;51.756;10.174;2023-03-18T17:54:18;99362.84;;;13.84;66.92
62011;BME280;47967;51.756;10.174;2023-03-18T17:58:24;99373.28;;;13.69;66.95
62011;BME280;47967;51.756;10.174;2023-03-18T18:02:28;99371.56;;;13.56;67.63
62011;BME280;47967;51.756;10.174;2023-03-18T18:06:31;99373.78;;;13.47;67.40
62011;BME280;47967;51.756;10.174;2023-03-18T18:10:34;99370.41;;;13.15;68.27
62011;BME280;47967;51.756;10.174;2023-03-18T18:14:38;99378.47;;;13.03;68.95
62011;BME280;47967;51.756;10.174;2023-03-18T18:18:40;99369.88;;;13.06;68.33
62011;BME280;47967;51.756;10.174;2023-03-18T18:22:45;99369.50;;;13.21;67.99
62011;BME280;47967;51.756;10.174;2023-03-18T18:26:48;99378.34;;;13.28;67.80
62011;BME280;47967;51.756;10.174;2023-03-18T18:30:52;99381.28;;;13.26;67.83
62011;BME280;47967;51.756;10.174;2023-03-18T18:34:55;99376.66;;;13.15;68.12
62011;BME280;47967;51.756;10.174;2023-03-18T18:38:58;99387.31;;;12.91;68.65
62011;BME280;47967;51.756;10.174;2023-03-18T18:43:01;99383.03;;;12.84;68.77
62011;BME280;47967;51.756;10.174;2023-03-18T18:47:15;99378.97;;;12.74;68.95
62011;BME280;47967;51.756;10.174;2023-03-18T18:51:20;99386.13;;;12.87;68.63
62011;BME280;47967;51.756;10.174;2023-03-18T18:55:23;99385.75;;;13.02;68.41
62011;BME280;47967;51.756;10.174;2023-03-18T18:59:28;99388.69;;;13.01;68.59
62011;BME280;47967;51.756;10.174;2023-03-18T19:03:33;99387.00;;;13.18;67.79
62011;BME280;47967;51.756;10.174;2023-03-18T19:07:36;99386.03;;;12.75;68.96
62011;BME280;47967;51.756;10.174;2023-03-18T19:11:39;99391.16;;;12.40;69.67
62011;BME280;47967;51.756;10.174;2023-03-18T19:15:43;99379.75;;;12.06;71.03
62011;BME280;47967;51.756;10.174;2023-03-18T19:19:49;99380.28;;;11.89;71.69
62011;BME280;47967;51.756;10.174;2023-03-18T19:23:53;99378.63;;;11.88;71.84
62011;BME280;47967;51.756;10.174;2023-03-18T19:27:55;99389.69;;;11.80;72.27
62011;BME280;47967;51.756;10.174;2023-03-18T19:31:58;99382.50;;;11.67;72.20
62011;BME280;47967;51.756;10.174;2023-03-18T19:36:05;99388.81;;;11.47;72.42
62011;BME280;47967;51.756;10.174;2023-03-18T19:40:18;99393.41;;;11.47;73.07
62011;BME280;47967;51.756;10.174;2023-03-18T19:44:24;99390.75;;;11.33;73.32
62011;BME280;47967;51.756;10.174;2023-03-18T19:48:27;99388.78;;;11.09;73.20
62011;BME280;47967;51.756;10.174;2023-03-18T19:52:31;99398.00;;;10.81;75.22
62011;BME280;47967;51.756;10.174;2023-03-18T19:56:34;99390.28;;;10.78;75.72
62011;BME280;47967;51.756;10.174;2023-03-18T20:00:36;99395.91;;;10.83;75.68
62011;BME280;47967;51.756;10.174;2023-03-18T20:04:39;99394.06;;;10.70;75.59
62011;BME280;47967;51.756;10.174;2023-03-18T20:08:43;99396.78;;;10.63;75.62
62011;BME280;47967;51.756;10.174;2023-03-18T20:12:47;99409.22;;;10.64;75.95
62011;BME280;47967;51.756;10.174;2023-03-18T20:16:52;99405.88;;;10.69;75.85
62011;BME280;47967;51.756;10.174;2023-03-18T20:20:55;99397.59;;;10.64;75.48
62011;BME280;47967;51.756;10.174;2023-03-18T20:24:59;99402.59;;;10.60;75.79
62011;BME280;47967;51.756;10.174;2023-03-18T20:29:08;99404.41;;;10.80;75.25
62011;BME280;47967;51.756;10.174;2023-03-18T20:33:16;99407.50;;;10.97;74.19
62011;BME280;47967;51.756;10.174;2023-03-18T20:37:21;99412.50;;;10.93;73.80
62011;BME280;47967;51.756;10.174;2023-03-18T20:41:28;99403.63;;;10.59;74.31
62011;BME280;47967;51.756;10.174;2023-03-18T20:45:32;99401.94;;;10.24;75.30
62011;BME280;47967;51.756;10.174;2023-03-18T20:49:36;99408.56;;;10.15;76.08
62011;BME280;47967;51.756;10.174;2023-03-18T20:53:40;99418.53;;;10.35;76.24
62011;BME280;47967;51.756;10.174;2023-03-18T20:57:44;99420.41;;;10.54;75.19
62011;BME280;47967;51.756;10.174;2023-03-18T21:01:47;99425.63;;;10.69;74.91
62011;BME280;47967;51.756;10.174;2023-03-18T21:05:52;99425.16;;;10.93;74.31
62011;BME280;47967;51.756;10.174;2023-03-18T21:09:56;99403.53;;;11.06;73.25
62011;BME280;47967;51.756;10.174;2023-03-18T21:14:00;99419.06;;;11.11;73.16
62011;BME280;47967;51.756;10.174;2023-03-18T21:18:04;99415.78;;;11.02;73.19
62011;BME280;47967;51.756;10.174;2023-03-18T21:22:08;99418.31;;;10.83;74.14
62011;BME280;47967;51.756;10.174;2023-03-18T21:26:11;99421.63;;;10.92;74.38
62011;BME280;47967;51.756;10.174;2023-03-18T21:30:16;99422.22;;;11.08;73.99
62011;BME280;47967;51.756;10.174;2023-03-18T21:34:19;99432.19;;;11.07;73.50
62011;BME280;47967;51.756;10.174;2023-03-18T21:38:23;99436.53;;;11.08;74.20
62011;BME280;47967;51.756;10.174;2023-03-18T21:42:27;99431.75;;;11.10;76.01
62011;BME280;47967;51.756;10.174;2023-03-18T21:46:32;99431.78;;;11.03;76.59
62011;BME280;47967;51.756;10.174;2023-03-18T21:50:35;99443.38;;;11.11;76.95
62011;BME280;47967;51.756;10.174;2023-03-18T21:54:37;99459.63;;;10.91;77.23
62011;BME280;47967;51.756;10.174;2023-03-18T21:58:40;99464.44;;;10.68;78.27
